sensor_id;sensor_type;location;lat;lon;timestamp;temperature;humidity
40053;DHT22;25758;48.200;16.338;2023-06-14T00:01:32;17.20;95.40
40053;DHT22;25758;48.200;16.338;2023-06-14T00:04:00;17.20;95.50
40053;DHT22;25758;48.200;16.338;2023-06-14T00:06:28;17.20;95.50
40053;DHT22;25758;48.200;16.338;2023-06-14T00:08:53;17.20;95.70
40053;DHT22;25758;48.200;16.338;2023-06-14T00:11:19;17.20;95.70
40053;DHT22;25758;48.200;16.338;2023-06-14T00:13:45;17.20;95.70
40053;DHT22;25758;48.200;16.338;2023-06-14T00:16:11;17.20;95.70
40053;DHT22;25758;48.200;16.338;2023-06-14T00:18:37;17.10;95.90
40053;DHT22;25758;48.200;16.338;2023-06-14T00:21:04;17.00;95.80
40053;DHT22;25758;48.200;16.338;2023-06-14T00:23:30;17.00;96.00
40053;DHT22;25758;48.200;16.338;2023-06-14T00:25:56;17.00;96.30
40053;DHT22;25758;48.200;16.338;2023-06-14T00:28:21;17.00;96.10
40053;DHT22;25758;48.200;16.338;2023-06-14T00:30:47;16.90;96.30
40053;DHT22;25758;48.200;16.338;2023-06-14T00:33:13;16.90;96.40
40053;DHT22;25758;48.200;16.338;2023-06-14T00:35:38;16.80;96.40
40053;DHT22;25758;48.200;16.338;2023-06-14T00:38:04;16.80;96.50
40053;DHT22;25758;48.200;16.338;2023-06-14T00:40:30;16.80;96.50
40053;DHT22;25758;48.200;16.338;2023-06-14T00:42:56;16.80;96.70
40053;DHT22;25758;48.200;16.338;2023-06-14T00:45:21;16.80;96.80
40053;DHT22;25758;48.200;16.338;2023-06-14T00:47:48;16.80;96.80
40053;DHT22;25758;48.200;16.338;2023-06-14T00:50:16;16.80;96.80
40053;DHT22;25758;48.200;16.338;2023-06-14T00:52:42;16.80;96.90
40053;DHT22;25758;48.200;16.338;2023-06-14T00:55:08;16.80;96.90
40053;DHT22;25758;48.200;16.338;2023-06-14T00:57:34;17.20;97.20
40053;DHT22;25758;48.200;16.338;2023-06-14T01:00:03;16.80;96.90
40053;DHT22;25758;48.200;16.338;2023-06-14T01:02:34;16.80;97.00
40053;DHT22;25758;48.200;16.338;2023-06-14T01:05:02;16.80;97.20
40053;DHT22;25758;48.200;16.338;2023-06-14T01:12:44;16.70;97.20
40053;DHT22;25758;48.200;16.338;2023-06-14T01:15:13;16.70;97.20
40053;DHT22;25758;48.200;16.338;2023-06-14T01:17:40;16.70;97.20
40053;DHT22;25758;48.200;16.338;2023-06-14T01:20:11;16.70;97.20
40053;DHT22;25758;48.200;16.338;2023-06-14T01:22:51;16.70;97.20
40053;DHT22;25758;48.200;16.338;2023-06-14T01:25:18;16.70;97.30
40053;DHT22;25758;48.200;16.338;2023-06-14T01:27:48;16.70;97.40
40053;DHT22;25758;48.200;16.338;2023-06-14T01:30:15;16.70;97.50
40053;DHT22;25758;48.200;16.338;2023-06-14T01:32:42;16.60;97.60
40053;DHT22;25758;48.200;16.338;2023-06-14T01:35:07;16.60;97.70
40053;DHT22;25758;48.200;16.338;2023-06-14T01:37:33;16.50;97.70
40053;DHT22;25758;48.200;16.338;2023-06-14T01:40:00;16.50;97.80
40053;DHT22;25758;48.200;16.338;2023-06-14T01:42:26;16.50;98.00
40053;DHT22;25758;48.200;16.338;2023-06-14T01:44:53;16.50;98.00
40053;DHT22;25758;48.200;16.338;2023-06-14T01:47:19;16.50;97.90
40053;DHT22;25758;48.200;16.338;2023-06-14T01:49:46;16.50;98.00
40053;DHT22;25758;48.200;16.338;2023-06-14T01:52:12;16.50;98.00
40053;DHT22;25758;48.200;16.338;2023-06-14T01:54:38;16.40;98.00
40053;DHT22;25758;48.200;16.338;2023-06-14T01:57:08;16.40;98.30
40053;DHT22;25758;48.200;16.338;2023-06-14T01:59:34;16.40;98.30
40053;DHT22;25758;48.200;16.338;2023-06-14T02:02:03;16.40;98.30
40053;DHT22;25758;48.200;16.338;2023-06-14T02:04:28;16.40;98.30
40053;DHT22;25758;48.200;16.338;2023-06-14T02:06:54;16.40;98.30
40053;DHT22;25758;48.200;16.338;2023-06-14T02:09:20;16.40;98.30
40053;DHT22;25758;48.200;16.338;2023-06-14T02:11:45;16.40;98.30
40053;DHT22;25758;48.200;16.338;2023-06-14T02:14:11;16.40;98.30
40053;DHT22;25758;48.200;16.338;2023-06-14T02:16:37;16.40;98.10
40053;DHT22;25758;48.200;16.338;2023-06-14T02:19:04;16.50;97.90
40053;DHT22;25758;48.200;16.338;2023-06-14T02:21:30;16.50;98.30
40053;DHT22;25758;48.200;16.338;2023-06-14T02:23:56;16.50;98.20
40053;DHT22;25758;48.200;16.338;2023-06-14T02:26:21;16.50;98.20
40053;DHT22;25758;48.200;16.338;2023-06-14T02:28:50;16.60;98.20
40053;DHT22;25758;48.200;16.338;2023-06-14T02:31:16;16.50;98.10
40053;DHT22;25758;48.200;16.338;2023-06-14T02:33:42;16.50;98.10
40053;DHT22;25758;48.200;16.338;2023-06-14T02:36:07;16.50;98.40
40053;DHT22;25758;48.200;16.338;2023-06-14T02:38:33;16.50;98.20
40053;DHT22;25758;48.200;16.338;2023-06-14T02:40:58;16.50;98.10
40053;DHT22;25758;48.200;16.338;2023-06-14T02:43:25;16.50;98.00
40053;DHT22;25758;48.200;16.338;2023-06-14T02:45:51;16.50;98.10
40053;DHT22;25758;48.200;16.338;2023-06-14T02:48:17;16.60;98.20
40053;DHT22;25758;48.200;16.338;2023-06-14T02:50:43;16.50;98.30
40053;DHT22;25758;48.200;16.338;2023-06-14T02:53:08;16.50;98.30
40053;DHT22;25758;48.200;16.338;2023-06-14T02:55:34;16.40;98.30
40053;DHT22;25758;48.200;16.338;2023-06-14T02:58:05;16.40;98.30
40053;DHT22;25758;48.200;16.338;2023-06-14T03:00:30;16.40;98.30
40053;DHT22;25758;48.200;16.338;2023-06-14T03:02:56;16.50;98.40
40053;DHT22;25758;48.200;16.338;2023-06-14T03:05:22;16.50;98.40
40053;DHT22;25758;48.200;16.338;2023-06-14T03:07:48;16.50;98.30
40053;DHT22;25758;48.200;16.338;2023-06-14T03:10:15;16.50;98.30
40053;DHT22;25758;48.200;16.338;2023-06-14T03:12:41;16.60;98.50
40053;DHT22;25758;48.200;16.338;2023-06-14T03:15:07;16.60;98.30
40053;DHT22;25758;48.200;16.338;2023-06-14T03:17:34;16.50;98.40
40053;DHT22;25758;48.200;16.338;2023-06-14T03:20:01;16.60;98.30
40053;DHT22;25758;48.200;16.338;2023-06-14T03:22:26;16.60;98.30
40053;DHT22;25758;48.200;16.338;2023-06-14T03:24:53;16.60;98.20
40053;DHT22;25758;48.200;16.338;2023-06-14T03:27:20;16.40;98.80
40053;DHT22;25758;48.200;16.338;2023-06-14T03:29:46;16.10;99.50
40053;DHT22;25758;48.200;16.338;2023-06-14T03:32:11;16.00;99.90
40053;DHT22;25758;48.200;16.338;2023-06-14T03:34:37;15.80;99.90
40053;DHT22;25758;48.200;16.338;2023-06-14T03:37:04;15.60;99.90
40053;DHT22;25758;48.200;16.338;2023-06-14T03:39:30;15.50;99.90
40053;DHT22;25758;48.200;16.338;2023-06-14T03:41:56;15.60;99.90
40053;DHT22;25758;48.200;16.338;2023-06-14T03:44:22;15.50;99.90
40053;DHT22;25758;48.200;16.338;2023-06-14T03:46:47;15.50;99.90
40053;DHT22;25758;48.200;16.338;2023-06-14T03:49:13;15.60;99.90
40053;DHT22;25758;48.200;16.338;2023-06-14T03:51:39;15.70;99.90
40053;DHT22;25758;48.200;16.338;2023-06-14T03:54:05;15.70;99.90
40053;DHT22;25758;48.200;16.338;2023-06-14T03:56:31;15.70;99.90
40053;DHT22;25758;48.200;16.338;2023-06-14T03:58:57;15.80;99.90
40053;DHT22;25758;48.200;16.338;2023-06-14T04:01:22;15.80;99.90
40053;DHT22;25758;48.200;16.338;2023-06-14T04:03:52;15.70;99.90
40053;DHT22;25758;48.200;16.338;2023-06-14T04:06:18;15.60;99.90
40053;DHT22;25758;48.200;16.338;2023-06-14T04:08:44;15.60;99.90
40053;DHT22;25758;48.200;16.338;2023-06-14T04:11:11;15.60;99.90
40053;DHT22;25758;48.200;16.338;2023-06-14T04:13:36;15.60;99.90
40053;DHT22;25758;48.200;16.338;2023-06-14T04:16:04;15.60;99.90
40053;DHT22;25758;48.200;16.338;2023-06-14T04:18:30;15.50;99.90
40053;DHT22;25758;48.200;16.338;2023-06-14T04:20:55;15.60;99.90
40053;DHT22;25758;48.200;16.338;2023-06-14T04:23:22;15.70;99.90
40053;DHT22;25758;48.200;16.338;2023-06-14T04:25:47;15.80;99.90
40053;DHT22;25758;48.200;16.338;2023-06-14T04:28:15;15.80;99.90
40053;DHT22;25758;48.200;16.338;2023-06-14T04:30:41;15.80;99.90
40053;DHT22;25758;48.200;16.338;2023-06-14T04:33:07;15.90;99.90
40053;DHT22;25758;48.200;16.338;2023-06-14T04:35:35;15.90;99.90
40053;DHT22;25758;48.200;16.338;2023-06-14T04:38:03;15.90;99.90
40053;DHT22;25758;48.200;16.338;2023-06-14T04:40:30;16.00;99.90
40053;DHT22;25758;48.200;16.338;2023-06-14T04:42:56;15.90;99.90
40053;DHT22;25758;48.200;16.338;2023-06-14T04:45:23;15.90;99.90
40053;DHT22;25758;48.200;16.338;2023-06-14T04:47:49;16.00;99.90
40053;DHT22;25758;48.200;16.338;2023-06-14T04:50:16;16.00;99.90
40053;DHT22;25758;48.200;16.338;2023-06-14T04:52:43;16.00;99.90
40053;DHT22;25758;48.200;16.338;2023-06-14T04:55:09;16.00;99.90
40053;DHT22;25758;48.200;16.338;2023-06-14T04:57:35;16.10;99.90
40053;DHT22;25758;48.200;16.338;2023-06-14T05:00:01;16.10;99.90
40053;DHT22;25758;48.200;16.338;2023-06-14T05:02:30;16.20;99.90
40053;DHT22;25758;48.200;16.338;2023-06-14T05:04:56;16.20;99.90
40053;DHT22;25758;48.200;16.338;2023-06-14T05:07:22;16.30;99.90
40053;DHT22;25758;48.200;16.338;2023-06-14T05:09:49;16.30;99.90
40053;DHT22;25758;48.200;16.338;2023-06-14T05:12:15;16.40;99.90
40053;DHT22;25758;48.200;16.338;2023-06-14T05:14:44;16.40;99.90
40053;DHT22;25758;48.200;16.338;2023-06-14T05:17:09;16.50;99.90
40053;DHT22;25758;48.200;16.338;2023-06-14T05:19:35;16.60;99.90
40053;DHT22;25758;48.200;16.338;2023-06-14T05:22:01;16.60;99.90
40053;DHT22;25758;48.200;16.338;2023-06-14T05:24:28;16.70;99.90
40053;DHT22;25758;48.200;16.338;2023-06-14T05:26:56;16.70;99.90
40053;DHT22;25758;48.200;16.338;2023-06-14T05:29:22;16.80;99.90
40053;DHT22;25758;48.200;16.338;2023-06-14T05:31:47;16.80;99.60
40053;DHT22;25758;48.200;16.338;2023-06-14T05:34:13;16.90;99.40
40053;DHT22;25758;48.200;16.338;2023-06-14T05:36:39;16.90;99.30
40053;DHT22;25758;48.200;16.338;2023-06-14T05:39:04;16.90;99.40
40053;DHT22;25758;48.200;16.338;2023-06-14T05:41:31;17.00;99.40
40053;DHT22;25758;48.200;16.338;2023-06-14T05:43:57;17.00;99.40
40053;DHT22;25758;48.200;16.338;2023-06-14T05:46:23;17.10;98.90
40053;DHT22;25758;48.200;16.338;2023-06-14T05:48:54;17.10;98.80
40053;DHT22;25758;48.200;16.338;2023-06-14T05:51:21;17.20;98.90
40053;DHT22;25758;48.200;16.338;2023-06-14T05:53:47;17.20;98.90
40053;DHT22;25758;48.200;16.338;2023-06-14T05:56:14;17.20;98.40
40053;DHT22;25758;48.200;16.338;2023-06-14T05:58:40;17.30;98.60
40053;DHT22;25758;48.200;16.338;2023-06-14T06:01:06;17.30;98.50
40053;DHT22;25758;48.200;16.338;2023-06-14T06:03:32;17.30;99.00
40053;DHT22;25758;48.200;16.338;2023-06-14T06:05:58;17.40;98.80
40053;DHT22;25758;48.200;16.338;2023-06-14T06:08:24;17.40;98.70
40053;DHT22;25758;48.200;16.338;2023-06-14T06:10:49;17.40;98.90
40053;DHT22;25758;48.200;16.338;2023-06-14T06:13:15;17.40;98.90
40053;DHT22;25758;48.200;16.338;2023-06-14T06:15:41;17.40;98.70
40053;DHT22;25758;48.200;16.338;2023-06-14T06:18:07;17.50;98.80
40053;DHT22;25758;48.200;16.338;2023-06-14T06:20:32;17.50;98.70
40053;DHT22;25758;48.200;16.338;2023-06-14T06:22:58;17.50;98.70
40053;DHT22;25758;48.200;16.338;2023-06-14T06:25:25;17.60;98.60
40053;DHT22;25758;48.200;16.338;2023-06-14T06:27:51;17.60;98.70
40053;DHT22;25758;48.200;16.338;2023-06-14T06:30:18;17.60;98.00
40053;DHT22;25758;48.200;16.338;2023-06-14T06:32:44;17.70;98.20
40053;DHT22;25758;48.200;16.338;2023-06-14T06:35:10;17.60;98.20
40053;DHT22;25758;48.200;16.338;2023-06-14T06:37:36;17.70;98.50
40053;DHT22;25758;48.200;16.338;2023-06-14T06:40:02;17.70;98.60
40053;DHT22;25758;48.200;16.338;2023-06-14T06:42:32;17.70;98.20
40053;DHT22;25758;48.200;16.338;2023-06-14T06:44:57;17.70;98.20
40053;DHT22;25758;48.200;16.338;2023-06-14T06:47:23;17.70;98.00
40053;DHT22;25758;48.200;16.338;2023-06-14T06:49:50;17.70;98.40
40053;DHT22;25758;48.200;16.338;2023-06-14T06:52:16;17.80;98.10
40053;DHT22;25758;48.200;16.338;2023-06-14T06:54:41;17.80;98.00
40053;DHT22;25758;48.200;16.338;2023-06-14T06:57:07;17.80;98.00
40053;DHT22;25758;48.200;16.338;2023-06-14T06:59:33;17.80;97.50
40053;DHT22;25758;48.200;16.338;2023-06-14T07:01:59;18.00;97.70
40053;DHT22;25758;48.200;16.338;2023-06-14T07:04:24;18.00;97.60
40053;DHT22;25758;48.200;16.338;2023-06-14T07:06:50;18.10;97.20
40053;DHT22;25758;48.200;16.338;2023-06-14T07:09:16;18.20;96.90
40053;DHT22;25758;48.200;16.338;2023-06-14T07:11:43;18.20;96.50
40053;DHT22;25758;48.200;16.338;2023-06-14T07:14:08;18.30;96.30
40053;DHT22;25758;48.200;16.338;2023-06-14T07:16:34;18.40;96.40
40053;DHT22;25758;48.200;16.338;2023-06-14T07:19:01;18.50;96.40
40053;DHT22;25758;48.200;16.338;2023-06-14T07:23:54;18.70;95.70
40053;DHT22;25758;48.200;16.338;2023-06-14T07:26:20;18.70;96.20
40053;DHT22;25758;48.200;16.338;2023-06-14T07:28:47;18.90;96.30
40053;DHT22;25758;48.200;16.338;2023-06-14T07:31:14;19.10;96.10
40053;DHT22;25758;48.200;16.338;2023-06-14T07:33:41;19.30;95.80
40053;DHT22;25758;48.200;16.338;2023-06-14T07:36:07;19.50;95.60
40053;DHT22;25758;48.200;16.338;2023-06-14T07:38:33;19.70;95.10
40053;DHT22;25758;48.200;16.338;2023-06-14T07:40:59;19.80;94.60
40053;DHT22;25758;48.200;16.338;2023-06-14T07:43:25;19.90;94.80
40053;DHT22;25758;48.200;16.338;2023-06-14T07:45:50;19.80;94.40
40053;DHT22;25758;48.200;16.338;2023-06-14T07:48:16;19.80;94.50
40053;DHT22;25758;48.200;16.338;2023-06-14T07:50:42;19.70;94.90
40053;DHT22;25758;48.200;16.338;2023-06-14T07:53:08;19.70;95.00
40053;DHT22;25758;48.200;16.338;2023-06-14T07:55:33;19.70;94.70
40053;DHT22;25758;48.200;16.338;2023-06-14T07:58:02;19.70;95.00
40053;DHT22;25758;48.200;16.338;2023-06-14T08:00:28;19.80;94.90
40053;DHT22;25758;48.200;16.338;2023-06-14T08:02:54;19.90;94.80
40053;DHT22;25758;48.200;16.338;2023-06-14T08:05:27;20.20;94.70
40053;DHT22;25758;48.200;16.338;2023-06-14T08:07:53;20.50;94.10
40053;DHT22;25758;48.200;16.338;2023-06-14T08:10:19;20.70;93.70
40053;DHT22;25758;48.200;16.338;2023-06-14T08:12:45;21.00;93.10
40053;DHT22;25758;48.200;16.338;2023-06-14T08:15:11;21.20;92.30
40053;DHT22;25758;48.200;16.338;2023-06-14T08:17:37;21.40;92.10
40053;DHT22;25758;48.200;16.338;2023-06-14T08:20:03;21.50;91.50
40053;DHT22;25758;48.200;16.338;2023-06-14T08:22:30;21.50;91.70
40053;DHT22;25758;48.200;16.338;2023-06-14T08:24:59;21.60;90.10
40053;DHT22;25758;48.200;16.338;2023-06-14T08:27:25;21.60;90.10
40053;DHT22;25758;48.200;16.338;2023-06-14T08:29:51;21.50;90.20
40053;DHT22;25758;48.200;16.338;2023-06-14T08:32:16;21.60;90.40
40053;DHT22;25758;48.200;16.338;2023-06-14T08:34:42;21.70;90.50
40053;DHT22;25758;48.200;16.338;2023-06-14T08:37:08;21.90;90.70
40053;DHT22;25758;48.200;16.338;2023-06-14T08:39:35;21.90;90.30
40053;DHT22;25758;48.200;16.338;2023-06-14T08:42:06;21.50;89.60
40053;DHT22;25758;48.200;16.338;2023-06-14T08:44:33;21.40;89.90
40053;DHT22;25758;48.200;16.338;2023-06-14T08:46:59;21.50;90.30
40053;DHT22;25758;48.200;16.338;2023-06-14T08:49:26;21.50;90.50
40053;DHT22;25758;48.200;16.338;2023-06-14T08:51:59;21.50;90.60
40053;DHT22;25758;48.200;16.338;2023-06-14T08:54:28;21.60;90.40
40053;DHT22;25758;48.200;16.338;2023-06-14T08:56:59;21.50;90.10
40053;DHT22;25758;48.200;16.338;2023-06-14T08:59:28;21.50;89.60
40053;DHT22;25758;48.200;16.338;2023-06-14T09:01:56;21.60;90.20
40053;DHT22;25758;48.200;16.338;2023-06-14T09:04:22;21.60;90.10
40053;DHT22;25758;48.200;16.338;2023-06-14T09:06:49;21.60;89.70
40053;DHT22;25758;48.200;16.338;2023-06-14T09:09:22;21.70;89.80
40053;DHT22;25758;48.200;16.338;2023-06-14T09:11:51;21.90;89.30
40053;DHT22;25758;48.200;16.338;2023-06-14T09:14:23;22.10;89.00
40053;DHT22;25758;48.200;16.338;2023-06-14T09:16:52;22.20;89.00
40053;DHT22;25758;48.200;16.338;2023-06-14T09:19:24;22.30;88.80
40053;DHT22;25758;48.200;16.338;2023-06-14T09:21:51;22.40;87.60
40053;DHT22;25758;48.200;16.338;2023-06-14T09:24:18;22.40;87.30
40053;DHT22;25758;48.200;16.338;2023-06-14T09:26:47;22.50;87.40
40053;DHT22;25758;48.200;16.338;2023-06-14T09:29:12;22.60;87.70
40053;DHT22;25758;48.200;16.338;2023-06-14T09:31:38;22.70;87.00
40053;DHT22;25758;48.200;16.338;2023-06-14T09:34:04;22.80;88.20
40053;DHT22;25758;48.200;16.338;2023-06-14T09:36:31;23.00;86.90
40053;DHT22;25758;48.200;16.338;2023-06-14T09:39:00;23.00;84.90
40053;DHT22;25758;48.200;16.338;2023-06-14T09:43:59;23.00;85.70
40053;DHT22;25758;48.200;16.338;2023-06-14T09:46:28;23.00;84.50
40053;DHT22;25758;48.200;16.338;2023-06-14T09:48:58;22.90;84.70
40053;DHT22;25758;48.200;16.338;2023-06-14T09:51:25;23.00;84.70
40053;DHT22;25758;48.200;16.338;2023-06-14T09:53:51;23.10;85.20
40053;DHT22;25758;48.200;16.338;2023-06-14T09:56:23;23.20;85.40
40053;DHT22;25758;48.200;16.338;2023-06-14T09:58:55;23.30;85.00
40053;DHT22;25758;48.200;16.338;2023-06-14T10:01:22;23.30;83.90
40053;DHT22;25758;48.200;16.338;2023-06-14T10:03:50;23.30;82.80
40053;DHT22;25758;48.200;16.338;2023-06-14T10:06:18;23.30;84.10
40053;DHT22;25758;48.200;16.338;2023-06-14T10:08:46;23.40;83.60
40053;DHT22;25758;48.200;16.338;2023-06-14T10:11:13;23.40;82.30
40053;DHT22;25758;48.200;16.338;2023-06-14T10:13:39;23.40;83.30
40053;DHT22;25758;48.200;16.338;2023-06-14T10:16:24;23.50;83.80
40053;DHT22;25758;48.200;16.338;2023-06-14T10:21:58;23.50;81.70
40053;DHT22;25758;48.200;16.338;2023-06-14T10:24:42;23.60;82.20
40053;DHT22;25758;48.200;16.338;2023-06-14T10:27:09;23.60;80.90
40053;DHT22;25758;48.200;16.338;2023-06-14T10:30:02;23.50;80.50
40053;DHT22;25758;48.200;16.338;2023-06-14T10:32:28;23.40;81.10
40053;DHT22;25758;48.200;16.338;2023-06-14T10:35:00;23.40;80.80
40053;DHT22;25758;48.200;16.338;2023-06-14T10:37:26;23.30;79.90
40053;DHT22;25758;48.200;16.338;2023-06-14T10:39:52;23.20;79.70
40053;DHT22;25758;48.200;16.338;2023-06-14T10:42:19;23.10;80.60
40053;DHT22;25758;48.200;16.338;2023-06-14T10:44:52;23.00;79.60
40053;DHT22;25758;48.200;16.338;2023-06-14T10:47:36;23.00;80.20
40053;DHT22;25758;48.200;16.338;2023-06-14T10:50:07;23.00;80.40
40053;DHT22;25758;48.200;16.338;2023-06-14T10:52:34;22.90;80.30
40053;DHT22;25758;48.200;16.338;2023-06-14T10:57:30;22.90;80.40
40053;DHT22;25758;48.200;16.338;2023-06-14T10:59:58;22.80;81.00
40053;DHT22;25758;48.200;16.338;2023-06-14T11:05:26;22.80;80.70
40053;DHT22;25758;48.200;16.338;2023-06-14T11:10:50;22.70;82.60
40053;DHT22;25758;48.200;16.338;2023-06-14T11:13:16;22.60;82.80
40053;DHT22;25758;48.200;16.338;2023-06-14T11:15:47;22.60;82.90
40053;DHT22;25758;48.200;16.338;2023-06-14T11:18:13;22.50;83.20
40053;DHT22;25758;48.200;16.338;2023-06-14T11:20:40;22.60;83.50
40053;DHT22;25758;48.200;16.338;2023-06-14T11:23:05;22.60;81.70
40053;DHT22;25758;48.200;16.338;2023-06-14T11:25:31;22.70;81.60
40053;DHT22;25758;48.200;16.338;2023-06-14T11:27:57;22.80;82.30
40053;DHT22;25758;48.200;16.338;2023-06-14T11:30:24;22.90;81.70
40053;DHT22;25758;48.200;16.338;2023-06-14T11:32:52;22.90;81.30
40053;DHT22;25758;48.200;16.338;2023-06-14T11:35:21;23.00;81.00
40053;DHT22;25758;48.200;16.338;2023-06-14T11:37:49;22.90;78.40
40053;DHT22;25758;48.200;16.338;2023-06-14T11:40:17;22.90;78.60
40053;DHT22;25758;48.200;16.338;2023-06-14T11:42:43;22.90;77.90
40053;DHT22;25758;48.200;16.338;2023-06-14T11:45:10;22.90;76.90
40053;DHT22;25758;48.200;16.338;2023-06-14T11:47:37;22.80;76.60
40053;DHT22;25758;48.200;16.338;2023-06-14T11:50:06;22.80;77.30
40053;DHT22;25758;48.200;16.338;2023-06-14T11:52:32;22.90;77.70
40053;DHT22;25758;48.200;16.338;2023-06-14T11:54:58;22.90;78.30
40053;DHT22;25758;48.200;16.338;2023-06-14T11:57:25;23.00;78.80
40053;DHT22;25758;48.200;16.338;2023-06-14T11:59:51;23.00;81.30
40053;DHT22;25758;48.200;16.338;2023-06-14T12:02:17;23.00;79.70
40053;DHT22;25758;48.200;16.338;2023-06-14T12:04:44;23.10;79.80
40053;DHT22;25758;48.200;16.338;2023-06-14T12:07:10;23.10;79.50
40053;DHT22;25758;48.200;16.338;2023-06-14T12:09:39;23.20;78.70
40053;DHT22;25758;48.200;16.338;2023-06-14T12:12:05;23.10;78.10
40053;DHT22;25758;48.200;16.338;2023-06-14T12:14:32;23.00;78.20
40053;DHT22;25758;48.200;16.338;2023-06-14T12:17:04;23.00;79.00
40053;DHT22;25758;48.200;16.338;2023-06-14T12:19:32;23.00;78.60
40053;DHT22;25758;48.200;16.338;2023-06-14T12:22:01;22.90;78.20
40053;DHT22;25758;48.200;16.338;2023-06-14T12:24:30;22.80;79.20
40053;DHT22;25758;48.200;16.338;2023-06-14T12:26:58;22.70;79.10
40053;DHT22;25758;48.200;16.338;2023-06-14T12:29:30;22.70;79.30
40053;DHT22;25758;48.200;16.338;2023-06-14T12:31:56;22.60;79.80
40053;DHT22;25758;48.200;16.338;2023-06-14T12:34:23;22.60;78.40
40053;DHT22;25758;48.200;16.338;2023-06-14T12:36:50;22.60;77.40
40053;DHT22;25758;48.200;16.338;2023-06-14T12:39:16;22.60;77.50
40053;DHT22;25758;48.200;16.338;2023-06-14T12:41:42;22.70;76.60
40053;DHT22;25758;48.200;16.338;2023-06-14T12:44:08;22.70;76.00
40053;DHT22;25758;48.200;16.338;2023-06-14T12:46:34;22.70;76.40
40053;DHT22;25758;48.200;16.338;2023-06-14T12:49:00;22.80;76.80
40053;DHT22;25758;48.200;16.338;2023-06-14T12:51:26;22.80;76.40
40053;DHT22;25758;48.200;16.338;2023-06-14T12:53:52;22.80;74.90
40053;DHT22;25758;48.200;16.338;2023-06-14T12:56:17;22.90;75.90
40053;DHT22;25758;48.200;16.338;2023-06-14T12:58:43;22.90;73.70
40053;DHT22;25758;48.200;16.338;2023-06-14T13:01:09;22.90;73.50
40053;DHT22;25758;48.200;16.338;2023-06-14T13:03:35;22.90;74.80
40053;DHT22;25758;48.200;16.338;2023-06-14T13:06:01;23.00;77.80
40053;DHT22;25758;48.200;16.338;2023-06-14T13:08:28;23.00;77.40
40053;DHT22;25758;48.200;16.338;2023-06-14T13:10:54;23.10;77.20
40053;DHT22;25758;48.200;16.338;2023-06-14T13:13:19;23.00;77.50
40053;DHT22;25758;48.200;16.338;2023-06-14T13:15:45;23.00;77.50
40053;DHT22;25758;48.200;16.338;2023-06-14T13:18:15;22.90;76.80
40053;DHT22;25758;48.200;16.338;2023-06-14T13:20:41;22.90;77.70
40053;DHT22;25758;48.200;16.338;2023-06-14T13:23:06;22.90;77.40
40053;DHT22;25758;48.200;16.338;2023-06-14T13:25:39;22.80;77.50
40053;DHT22;25758;48.200;16.338;2023-06-14T13:28:05;22.80;77.80
40053;DHT22;25758;48.200;16.338;2023-06-14T13:30:32;22.80;78.00
40053;DHT22;25758;48.200;16.338;2023-06-14T13:32:57;22.80;77.90
40053;DHT22;25758;48.200;16.338;2023-06-14T13:35:23;22.70;78.00
40053;DHT22;25758;48.200;16.338;2023-06-14T13:37:49;22.80;77.60
40053;DHT22;25758;48.200;16.338;2023-06-14T13:40:15;22.70;77.60
40053;DHT22;25758;48.200;16.338;2023-06-14T13:42:41;22.70;76.90
40053;DHT22;25758;48.200;16.338;2023-06-14T13:45:08;22.70;76.70
40053;DHT22;25758;48.200;16.338;2023-06-14T13:47:34;22.60;77.80
40053;DHT22;25758;48.200;16.338;2023-06-14T13:50:00;22.60;78.40
40053;DHT22;25758;48.200;16.338;2023-06-14T13:52:25;22.50;78.50
40053;DHT22;25758;48.200;16.338;2023-06-14T13:54:52;22.50;78.10
40053;DHT22;25758;48.200;16.338;2023-06-14T13:57:17;22.40;77.90
40053;DHT22;25758;48.200;16.338;2023-06-14T13:59:44;22.40;77.10
40053;DHT22;25758;48.200;16.338;2023-06-14T14:02:10;22.30;77.10
40053;DHT22;25758;48.200;16.338;2023-06-14T14:04:38;22.20;77.00
40053;DHT22;25758;48.200;16.338;2023-06-14T14:07:05;22.20;77.40
40053;DHT22;25758;48.200;16.338;2023-06-14T14:09:31;22.20;78.20
40053;DHT22;25758;48.200;16.338;2023-06-14T14:11:58;22.20;78.80
40053;DHT22;25758;48.200;16.338;2023-06-14T14:14:24;22.20;78.20
40053;DHT22;25758;48.200;16.338;2023-06-14T14:16:50;22.20;78.60
40053;DHT22;25758;48.200;16.338;2023-06-14T14:19:17;22.10;78.70
40053;DHT22;25758;48.200;16.338;2023-06-14T14:21:44;22.20;79.10
40053;DHT22;25758;48.200;16.338;2023-06-14T14:24:10;22.10;79.40
40053;DHT22;25758;48.200;16.338;2023-06-14T14:26:36;22.10;79.30
40053;DHT22;25758;48.200;16.338;2023-06-14T14:29:02;22.20;80.30
40053;DHT22;25758;48.200;16.338;2023-06-14T14:31:28;22.20;79.30
40053;DHT22;25758;48.200;16.338;2023-06-14T14:33:54;22.20;79.20
40053;DHT22;25758;48.200;16.338;2023-06-14T14:36:20;22.30;79.70
40053;DHT22;25758;48.200;16.338;2023-06-14T14:38:45;22.30;78.90
40053;DHT22;25758;48.200;16.338;2023-06-14T14:41:12;22.30;78.60
40053;DHT22;25758;48.200;16.338;2023-06-14T14:43:38;22.40;78.70
40053;DHT22;25758;48.200;16.338;2023-06-14T14:46:04;22.50;78.70
40053;DHT22;25758;48.200;16.338;2023-06-14T14:48:29;22.50;77.70
40053;DHT22;25758;48.200;16.338;2023-06-14T14:50:55;22.50;77.40
40053;DHT22;25758;48.200;16.338;2023-06-14T14:53:21;22.50;78.10
40053;DHT22;25758;48.200;16.338;2023-06-14T14:55:46;22.50;78.70
40053;DHT22;25758;48.200;16.338;2023-06-14T14:58:13;22.50;78.90
40053;DHT22;25758;48.200;16.338;2023-06-14T15:00:42;22.50;79.00
40053;DHT22;25758;48.200;16.338;2023-06-14T15:03:08;22.50;78.90
40053;DHT22;25758;48.200;16.338;2023-06-14T15:05:33;22.50;78.50
40053;DHT22;25758;48.200;16.338;2023-06-14T15:07:59;22.40;78.40
40053;DHT22;25758;48.200;16.338;2023-06-14T15:10:25;22.40;78.00
40053;DHT22;25758;48.200;16.338;2023-06-14T15:12:50;22.40;78.80
40053;DHT22;25758;48.200;16.338;2023-06-14T15:15:16;22.30;79.10
40053;DHT22;25758;48.200;16.338;2023-06-14T15:17:42;22.30;78.80
40053;DHT22;25758;48.200;16.338;2023-06-14T15:20:08;22.30;79.00
40053;DHT22;25758;48.200;16.338;2023-06-14T15:22:34;22.30;79.10
40053;DHT22;25758;48.200;16.338;2023-06-14T15:24:59;22.30;78.80
40053;DHT22;25758;48.200;16.338;2023-06-14T15:27:25;22.30;78.20
40053;DHT22;25758;48.200;16.338;2023-06-14T15:29:51;22.30;78.40
40053;DHT22;25758;48.200;16.338;2023-06-14T15:32:17;22.30;78.20
40053;DHT22;25758;48.200;16.338;2023-06-14T15:34:42;22.30;77.60